sensor_id;sensor_type;location;lat;lon;timestamp;P1;durP1;ratioP1;P2;durP2;ratioP2
73693;SDS011;61997;53.974;11.670;2023-12-04T00:02:12;17.33;;;7.75;;
73693;SDS011;61997;53.974;11.670;2023-12-04T00:04:37;12.40;;;7.70;;
73693;SDS011;61997;53.974;11.670;2023-12-04T00:07:03;16.30;;;7.78;;
73693;SDS011;61997;53.974;11.670;2023-12-04T00:09:28;12.77;;;7.10;;
73693;SDS011;61997;53.974;11.670;2023-12-04T00:11:55;11.98;;;7.10;;
73693;SDS011;61997;53.974;11.670;2023-12-04T00:14:20;14.55;;;8.20;;
73693;SDS011;61997;53.974;11.670;2023-12-04T00:16:46;14.43;;;7.90;;
73693;SDS011;61997;53.974;11.670;2023-12-04T00:19:11;14.55;;;7.05;;
73693;SDS011;61997;53.974;11.670;2023-12-04T00:21:36;16.40;;;7.88;;
73693;SDS011;61997;53.974;11.670;2023-12-04T00:24:02;16.13;;;7.75;;
73693;SDS011;61997;53.974;11.670;2023-12-04T00:26:29;15.93;;;8.43;;
73693;SDS011;61997;53.974;11.670;2023-12-04T00:28:55;14.25;;;7.13;;
73693;SDS011;61997;53.974;11.670;2023-12-04T00:31:21;13.65;;;7.50;;
73693;SDS011;61997;53.974;11.670;2023-12-04T00:33:47;12.80;;;6.43;;
73693;SDS011;61997;53.974;11.670;2023-12-04T00:36:13;17.55;;;8.57;;
73693;SDS011;61997;53.974;11.670;2023-12-04T00:38:38;14.70;;;8.05;;
73693;SDS011;61997;53.974;11.670;2023-12-04T00:41:04;16.83;;;8.45;;
73693;SDS011;61997;53.974;11.670;2023-12-04T00:43:30;18.15;;;7.68;;
73693;SDS011;61997;53.974;11.670;2023-12-04T00:45:55;11.38;;;7.57;;
73693;SDS011;61997;53.974;11.670;2023-12-04T00:48:20;14.75;;;7.40;;
73693;SDS011;61997;53.974;11.670;2023-12-04T00:50:46;13.30;;;7.65;;
73693;SDS011;61997;53.974;11.670;2023-12-04T00:53:11;12.82;;;6.85;;
73693;SDS011;61997;53.974;11.670;2023-12-04T00:55:37;14.93;;;7.05;;
73693;SDS011;61997;53.974;11.670;2023-12-04T00:58:02;14.88;;;7.50;;
73693;SDS011;61997;53.974;11.670;2023-12-04T01:00:27;13.43;;;7.68;;
73693;SDS011;61997;53.974;11.670;2023-12-04T01:02:53;15.30;;;7.50;;
73693;SDS011;61997;53.974;11.670;2023-12-04T01:05:19;13.77;;;6.70;;
73693;SDS011;61997;53.974;11.670;2023-12-04T01:07:44;14.60;;;7.85;;
73693;SDS011;61997;53.974;11.670;2023-12-04T01:10:10;11.75;;;7.50;;
73693;SDS011;61997;53.974;11.670;2023-12-04T01:12:36;15.30;;;7.80;;
73693;SDS011;61997;53.974;11.670;2023-12-04T01:15:02;14.52;;;7.10;;
73693;SDS011;61997;53.974;11.670;2023-12-04T01:17:28;14.60;;;6.95;;
73693;SDS011;61997;53.974;11.670;2023-12-04T01:19:54;14.48;;;6.72;;
73693;SDS011;61997;53.974;11.670;2023-12-04T01:22:19;14.75;;;7.55;;
73693;SDS011;61997;53.974;11.670;2023-12-04T01:24:45;14.85;;;6.95;;
73693;SDS011;61997;53.974;11.670;2023-12-04T01:27:11;16.88;;;7.60;;
73693;SDS011;61997;53.974;11.670;2023-12-04T01:29:36;14.35;;;7.03;;
73693;SDS011;61997;53.974;11.670;2023-12-04T01:32:02;15.93;;;7.20;;
73693;SDS011;61997;53.974;11.670;2023-12-04T01:34:27;13.30;;;7.05;;
73693;SDS011;61997;53.974;11.670;2023-12-04T01:36:52;13.52;;;7.22;;
73693;SDS011;61997;53.974;11.670;2023-12-04T01:39:18;13.48;;;7.13;;
73693;SDS011;61997;53.974;11.670;2023-12-04T01:41:43;13.05;;;6.47;;
73693;SDS011;61997;53.974;11.670;2023-12-04T01:44:09;14.75;;;6.47;;
73693;SDS011;61997;53.974;11.670;2023-12-04T01:46:35;13.45;;;6.90;;
73693;SDS011;61997;53.974;11.670;2023-12-04T01:49:02;14.45;;;7.07;;
73693;SDS011;61997;53.974;11.670;2023-12-04T01:51:28;16.85;;;8.50;;
73693;SDS011;61997;53.974;11.670;2023-12-04T01:53:55;12.52;;;6.95;;
73693;SDS011;61997;53.974;11.670;2023-12-04T01:56:24;11.30;;;6.47;;
73693;SDS011;61997;53.974;11.670;2023-12-04T01:58:49;11.77;;;6.07;;
73693;SDS011;61997;53.974;11.670;2023-12-04T02:01:15;12.18;;;6.45;;
73693;SDS011;61997;53.974;11.670;2023-12-04T02:03:41;13.25;;;7.03;;
73693;SDS011;61997;53.974;11.670;2023-12-04T02:06:07;10.43;;;5.57;;
73693;SDS011;61997;53.974;11.670;2023-12-04T02:08:34;13.32;;;7.03;;
73693;SDS011;61997;53.974;11.670;2023-12-04T02:11:00;14.05;;;6.03;;
73693;SDS011;61997;53.974;11.670;2023-12-04T02:13:25;11.57;;;6.15;;
73693;SDS011;61997;53.974;11.670;2023-12-04T02:15:53;10.95;;;6.72;;
73693;SDS011;61997;53.974;11.670;2023-12-04T02:18:20;12.30;;;6.53;;
73693;SDS011;61997;53.974;11.670;2023-12-04T02:20:47;16.23;;;7.00;;
73693;SDS011;61997;53.974;11.670;2023-12-04T02:23:14;12.00;;;6.03;;
73693;SDS011;61997;53.974;11.670;2023-12-04T02:25:40;14.73;;;6.70;;
73693;SDS011;61997;53.974;11.670;2023-12-04T02:28:06;13.75;;;6.28;;
73693;SDS011;61997;53.974;11.670;2023-12-04T02:30:34;13.55;;;6.28;;
73693;SDS011;61997;53.974;11.670;2023-12-04T02:33:03;11.38;;;6.45;;
73693;SDS011;61997;53.974;11.670;2023-12-04T02:35:31;10.10;;;5.55;;
73693;SDS011;61997;53.974;11.670;2023-12-04T02:37:59;13.05;;;5.85;;
73693;SDS011;61997;53.974;11.670;2023-12-04T02:40:25;13.55;;;6.25;;
73693;SDS011;61997;53.974;11.670;2023-12-04T02:42:51;8.95;;;5.90;;
73693;SDS011;61997;53.974;11.670;2023-12-04T02:45:16;13.77;;;6.07;;
73693;SDS011;61997;53.974;11.670;2023-12-04T02:47:42;11.25;;;6.53;;
73693;SDS011;61997;53.974;11.670;2023-12-04T02:50:07;14.85;;;6.20;;
73693;SDS011;61997;53.974;11.670;2023-12-04T02:52:33;8.85;;;6.00;;
73693;SDS011;61997;53.974;11.670;2023-12-04T02:54:58;11.23;;;5.45;;
73693;SDS011;61997;53.974;11.670;2023-12-04T02:57:23;12.43;;;7.10;;
73693;SDS011;61997;53.974;11.670;2023-12-04T02:59:49;11.10;;;5.68;;
73693;SDS011;61997;53.974;11.670;2023-12-04T03:02:15;8.48;;;4.97;;
73693;SDS011;61997;53.974;11.670;2023-12-04T03:04:40;10.40;;;5.57;;
73693;SDS011;61997;53.974;11.670;2023-12-04T03:07:05;11.40;;;5.97;;
73693;SDS011;61997;53.974;11.670;2023-12-04T03:09:31;10.30;;;5.13;;
73693;SDS011;61997;53.974;11.670;2023-12-04T03:11:56;12.02;;;5.20;;
73693;SDS011;61997;53.974;11.670;2023-12-04T03:14:22;12.80;;;6.32;;
73693;SDS011;61997;53.974;11.670;2023-12-04T03:16:47;11.57;;;5.50;;
73693;SDS011;61997;53.974;11.670;2023-12-04T03:19:12;15.65;;;6.57;;
73693;SDS011;61997;53.974;11.670;2023-12-04T03:21:38;10.48;;;5.38;;
73693;SDS011;61997;53.974;11.670;2023-12-04T03:24:03;9.40;;;5.53;;
73693;SDS011;61997;53.974;11.670;2023-12-04T03:26:29;9.93;;;5.00;;
73693;SDS011;61997;53.974;11.670;2023-12-04T03:28:54;10.32;;;5.25;;
73693;SDS011;61997;53.974;11.670;2023-12-04T03:31:20;11.35;;;5.18;;
73693;SDS011;61997;53.974;11.670;2023-12-04T03:33:46;8.32;;;4.43;;
73693;SDS011;61997;53.974;11.670;2023-12-04T03:36:11;10.95;;;4.70;;
73693;SDS011;61997;53.974;11.670;2023-12-04T03:38:37;9.60;;;5.47;;
73693;SDS011;61997;53.974;11.670;2023-12-04T03:41:02;10.60;;;5.60;;
73693;SDS011;61997;53.974;11.670;2023-12-04T03:43:28;12.00;;;5.30;;
73693;SDS011;61997;53.974;11.670;2023-12-04T03:45:53;9.80;;;5.03;;
73693;SDS011;61997;53.974;11.670;2023-12-04T03:48:18;9.15;;;4.97;;
73693;SDS011;61997;53.974;11.670;2023-12-04T03:50:44;11.55;;;5.65;;
73693;SDS011;61997;53.974;11.670;2023-12-04T03:53:09;9.23;;;5.00;;
73693;SDS011;61997;53.974;11.670;2023-12-04T03:55:35;12.30;;;5.30;;
73693;SDS011;61997;53.974;11.670;2023-12-04T03:58:00;8.65;;;4.40;;
73693;SDS011;61997;53.974;11.670;2023-12-04T04:00:26;10.90;;;5.55;;
73693;SDS011;61997;53.974;11.670;2023-12-04T04:02:51;10.52;;;4.28;;
73693;SDS011;61997;53.974;11.670;2023-12-04T04:05:17;9.00;;;4.40;;
73693;SDS011;61997;53.974;11.670;2023-12-04T04:07:42;8.27;;;4.78;;
73693;SDS011;61997;53.974;11.670;2023-12-04T04:10:08;9.60;;;4.93;;
73693;SDS011;61997;53.974;11.670;2023-12-04T04:12:34;11.52;;;4.95;;
73693;SDS011;61997;53.974;11.670;2023-12-04T04:14:59;8.40;;;4.60;;
73693;SDS011;61997;53.974;11.670;2023-12-04T04:17:25;7.72;;;4.85;;
73693;SDS011;61997;53.974;11.670;2023-12-04T04:19:51;8.63;;;4.60;;
73693;SDS011;61997;53.974;11.670;2023-12-04T04:22:20;7.38;;;4.88;;
73693;SDS011;61997;53.974;11.670;2023-12-04T04:24:46;8.75;;;3.83;;
73693;SDS011;61997;53.974;11.670;2023-12-04T04:27:12;11.55;;;4.78;;
73693;SDS011;61997;53.974;11.670;2023-12-04T04:29:37;10.65;;;4.95;;
73693;SDS011;61997;53.974;11.670;2023-12-04T04:32:02;9.88;;;4.00;;
73693;SDS011;61997;53.974;11.670;2023-12-04T04:34:28;7.18;;;4.03;;
73693;SDS011;61997;53.974;11.670;2023-12-04T04:36:53;7.95;;;3.92;;
73693;SDS011;61997;53.974;11.670;2023-12-04T04:39:19;7.13;;;4.30;;
73693;SDS011;61997;53.974;11.670;2023-12-04T04:41:44;7.40;;;4.22;;
73693;SDS011;61997;53.974;11.670;2023-12-04T04:44:10;7.97;;;4.05;;
73693;SDS011;61997;53.974;11.670;2023-12-04T04:46:35;7.85;;;4.88;;
73693;SDS011;61997;53.974;11.670;2023-12-04T04:49:00;7.55;;;4.43;;
73693;SDS011;61997;53.974;11.670;2023-12-04T04:51:27;8.55;;;4.18;;
73693;SDS011;61997;53.974;11.670;2023-12-04T04:53:52;7.65;;;4.47;;
73693;SDS011;61997;53.974;11.670;2023-12-04T04:56:18;8.32;;;3.58;;
73693;SDS011;61997;53.974;11.670;2023-12-04T04:58:43;5.75;;;3.47;;
73693;SDS011;61997;53.974;11.670;2023-12-04T05:01:09;7.70;;;4.10;;
73693;SDS011;61997;53.974;11.670;2023-12-04T05:03:34;6.95;;;3.83;;
73693;SDS011;61997;53.974;11.670;2023-12-04T05:05:59;7.90;;;4.47;;
73693;SDS011;61997;53.974;11.670;2023-12-04T05:08:25;7.20;;;4.13;;
73693;SDS011;61997;53.974;11.670;2023-12-04T05:10:50;7.53;;;4.30;;
73693;SDS011;61997;53.974;11.670;2023-12-04T05:13:15;8.30;;;4.05;;
73693;SDS011;61997;53.974;11.670;2023-12-04T05:15:41;8.57;;;3.88;;
73693;SDS011;61997;53.974;11.670;2023-12-04T05:18:06;7.00;;;4.43;;
73693;SDS011;61997;53.974;11.670;2023-12-04T05:20:31;8.25;;;4.35;;
73693;SDS011;61997;53.974;11.670;2023-12-04T05:22:57;8.38;;;4.40;;
73693;SDS011;61997;53.974;11.670;2023-12-04T05:25:22;9.30;;;3.97;;
73693;SDS011;61997;53.974;11.670;2023-12-04T05:27:48;7.43;;;3.88;;
73693;SDS011;61997;53.974;11.670;2023-12-04T05:30:13;8.45;;;3.83;;
73693;SDS011;61997;53.974;11.670;2023-12-04T05:32:39;5.68;;;3.45;;
73693;SDS011;61997;53.974;11.670;2023-12-04T05:35:04;7.75;;;3.97;;
73693;SDS011;61997;53.974;11.670;2023-12-04T05:37:33;8.95;;;4.75;;
73693;SDS011;61997;53.974;11.670;2023-12-04T05:39:58;9.48;;;4.13;;
73693;SDS011;61997;53.974;11.670;2023-12-04T05:42:24;9.98;;;3.80;;
73693;SDS011;61997;53.974;11.670;2023-12-04T05:44:50;8.77;;;4.20;;
73693;SDS011;61997;53.974;11.670;2023-12-04T05:47:20;8.00;;;4.07;;
73693;SDS011;61997;53.974;11.670;2023-12-04T05:49:45;9.90;;;4.78;;
73693;SDS011;61997;53.974;11.670;2023-12-04T05:52:11;7.97;;;3.88;;
73693;SDS011;61997;53.974;11.670;2023-12-04T05:54:38;7.78;;;3.67;;
73693;SDS011;61997;53.974;11.670;2023-12-04T05:57:04;9.48;;;3.97;;
73693;SDS011;61997;53.974;11.670;2023-12-04T05:59:30;7.78;;;4.28;;
73693;SDS011;61997;53.974;11.670;2023-12-04T06:01:55;8.30;;;3.67;;
73693;SDS011;61997;53.974;11.670;2023-12-04T06:04:22;7.95;;;4.38;;
73693;SDS011;61997;53.974;11.670;2023-12-04T06:06:48;8.13;;;4.10;;
73693;SDS011;61997;53.974;11.670;2023-12-04T06:09:13;8.27;;;4.45;;
73693;SDS011;61997;53.974;11.670;2023-12-04T06:11:41;8.73;;;4.07;;
73693;SDS011;61997;53.974;11.670;2023-12-04T06:14:08;6.53;;;3.47;;
73693;SDS011;61997;53.974;11.670;2023-12-04T06:16:33;8.13;;;3.92;;
73693;SDS011;61997;53.974;11.670;2023-12-04T06:18:59;7.60;;;3.70;;
73693;SDS011;61997;53.974;11.670;2023-12-04T06:21:25;8.20;;;4.40;;
73693;SDS011;61997;53.974;11.670;2023-12-04T06:23:50;8.18;;;3.70;;
73693;SDS011;61997;53.974;11.670;2023-12-04T06:26:16;8.82;;;4.20;;
73693;SDS011;61997;53.974;11.670;2023-12-04T06:28:42;8.27;;;4.25;;
73693;SDS011;61997;53.974;11.670;2023-12-04T06:31:08;9.20;;;4.53;;
73693;SDS011;61997;53.974;11.670;2023-12-04T06:33:35;9.70;;;4.68;;
73693;SDS011;61997;53.974;11.670;2023-12-04T06:36:02;10.35;;;5.03;;
73693;SDS011;61997;53.974;11.670;2023-12-04T06:38:30;7.55;;;3.75;;
73693;SDS011;61997;53.974;11.670;2023-12-04T06:40:58;9.23;;;4.15;;
73693;SDS011;61997;53.974;11.670;2023-12-04T06:43:24;9.15;;;4.88;;
73693;SDS011;61997;53.974;11.670;2023-12-04T06:45:50;10.82;;;5.18;;
73693;SDS011;61997;53.974;11.670;2023-12-04T06:48:16;8.95;;;4.55;;
73693;SDS011;61997;53.974;11.670;2023-12-04T06:50:42;9.90;;;5.43;;
73693;SDS011;61997;53.974;11.670;2023-12-04T06:53:08;9.55;;;4.40;;
73693;SDS011;61997;53.974;11.670;2023-12-04T06:55:34;10.32;;;4.80;;
73693;SDS011;61997;53.974;11.670;2023-12-04T06:58:00;10.18;;;4.63;;
73693;SDS011;61997;53.974;11.670;2023-12-04T07:00:27;7.82;;;4.93;;
73693;SDS011;61997;53.974;11.670;2023-12-04T07:02:55;9.35;;;5.03;;
73693;SDS011;61997;53.974;11.670;2023-12-04T07:05:20;11.00;;;4.82;;
73693;SDS011;61997;53.974;11.670;2023-12-04T07:07:46;11.02;;;4.80;;
73693;SDS011;61997;53.974;11.670;2023-12-04T07:10:11;6.63;;;4.05;;
73693;SDS011;61997;53.974;11.670;2023-12-04T07:12:42;12.48;;;5.78;;
73693;SDS011;61997;53.974;11.670;2023-12-04T07:15:09;14.45;;;5.43;;
73693;SDS011;61997;53.974;11.670;2023-12-04T07:17:36;8.70;;;5.22;;
73693;SDS011;61997;53.974;11.670;2023-12-04T07:20:02;12.15;;;5.85;;
73693;SDS011;61997;53.974;11.670;2023-12-04T07:22:31;9.32;;;4.53;;
73693;SDS011;61997;53.974;11.670;2023-12-04T07:24:58;9.88;;;4.55;;
73693;SDS011;61997;53.974;11.670;2023-12-04T07:27:24;11.48;;;5.30;;
73693;SDS011;61997;53.974;11.670;2023-12-04T07:29:50;11.85;;;5.28;;
73693;SDS011;61997;53.974;11.670;2023-12-04T07:32:16;9.98;;;5.63;;
73693;SDS011;61997;53.974;11.670;2023-12-04T07:34:43;10.77;;;5.15;;
73693;SDS011;61997;53.974;11.670;2023-12-04T07:37:08;9.75;;;5.10;;
73693;SDS011;61997;53.974;11.670;2023-12-04T07:39:34;14.00;;;5.38;;
73693;SDS011;61997;53.974;11.670;2023-12-04T07:42:00;9.75;;;4.90;;
73693;SDS011;61997;53.974;11.670;2023-12-04T07:44:27;11.25;;;5.65;;
73693;SDS011;61997;53.974;11.670;2023-12-04T07:46:53;10.80;;;5.10;;
73693;SDS011;61997;53.974;11.670;2023-12-04T07:49:19;12.20;;;5.30;;
73693;SDS011;61997;53.974;11.670;2023-12-04T07:51:46;9.52;;;5.05;;
73693;SDS011;61997;53.974;11.670;2023-12-04T07:54:13;12.15;;;4.88;;
73693;SDS011;61997;53.974;11.670;2023-12-04T07:56:39;13.80;;;5.15;;
73693;SDS011;61997;53.974;11.670;2023-12-04T07:59:05;9.93;;;4.68;;
73693;SDS011;61997;53.974;11.670;2023-12-04T08:01:32;10.18;;;4.57;;
73693;SDS011;61997;53.974;11.670;2023-12-04T08:04:01;9.00;;;4.85;;
73693;SDS011;61997;53.974;11.670;2023-12-04T08:06:30;9.23;;;4.97;;
73693;SDS011;61997;53.974;11.670;2023-12-04T08:08:56;11.07;;;4.82;;
73693;SDS011;61997;53.974;11.670;2023-12-04T08:11:22;15.00;;;5.43;;
73693;SDS011;61997;53.974;11.670;2023-12-04T08:13:48;12.65;;;5.15;;
73693;SDS011;61997;53.974;11.670;2023-12-04T08:16:14;10.32;;;5.32;;
73693;SDS011;61997;53.974;11.670;2023-12-04T08:18:40;11.35;;;5.25;;
73693;SDS011;61997;53.974;11.670;2023-12-04T08:21:09;9.10;;;4.95;;
73693;SDS011;61997;53.974;11.670;2023-12-04T08:23:36;11.10;;;5.35;;
73693;SDS011;61997;53.974;11.670;2023-12-04T08:26:02;10.98;;;5.63;;
73693;SDS011;61997;53.974;11.670;2023-12-04T08:28:30;13.55;;;5.97;;
73693;SDS011;61997;53.974;11.670;2023-12-04T08:31:06;11.15;;;4.95;;
73693;SDS011;61997;53.974;11.670;2023-12-04T08:33:33;9.77;;;4.85;;
73693;SDS011;61997;53.974;11.670;2023-12-04T08:36:02;11.90;;;5.53;;
73693;SDS011;61997;53.974;11.670;2023-12-04T08:38:28;10.82;;;5.50;;
73693;SDS011;61997;53.974;11.670;2023-12-04T08:40:54;7.97;;;5.03;;
73693;SDS011;61997;53.974;11.670;2023-12-04T08:43:20;10.65;;;4.85;;
73693;SDS011;61997;53.974;11.670;2023-12-04T08:45:45;11.38;;;5.38;;
73693;SDS011;61997;53.974;11.670;2023-12-04T08:48:11;13.05;;;5.43;;
73693;SDS011;61997;53.974;11.670;2023-12-04T08:50:37;11.13;;;5.38;;
73693;SDS011;61997;53.974;11.670;2023-12-04T08:53:03;10.13;;;5.70;;
73693;SDS011;61997;53.974;11.670;2023-12-04T08:55:31;12.70;;;5.82;;
73693;SDS011;61997;53.974;11.670;2023-12-04T08:57:57;9.88;;;5.22;;
73693;SDS011;61997;53.974;11.670;2023-12-04T09:00:22;11.57;;;5.32;;
73693;SDS011;61997;53.974;11.670;2023-12-04T09:02:48;15.00;;;5.88;;
73693;SDS011;61997;53.974;11.670;2023-12-04T09:05:14;12.73;;;5.75;;
73693;SDS011;61997;53.974;11.670;2023-12-04T09:07:39;10.18;;;5.65;;
73693;SDS011;61997;53.974;11.670;2023-12-04T09:10:05;9.80;;;5.55;;
73693;SDS011;61997;53.974;11.670;2023-12-04T09:12:31;13.07;;;5.53;;
73693;SDS011;61997;53.974;11.670;2023-12-04T09:14:56;13.10;;;6.00;;
73693;SDS011;61997;53.974;11.670;2023-12-04T09:17:21;10.55;;;6.07;;
73693;SDS011;61997;53.974;11.670;2023-12-04T09:19:47;8.75;;;5.10;;
73693;SDS011;61997;53.974;11.670;2023-12-04T09:22:12;9.73;;;4.57;;
73693;SDS011;61997;53.974;11.670;2023-12-04T09:24:38;13.68;;;6.22;;
73693;SDS011;61997;53.974;11.670;2023-12-04T09:27:03;7.95;;;5.00;;
73693;SDS011;61997;53.974;11.670;2023-12-04T09:29:31;9.57;;;4.78;;
73693;SDS011;61997;53.974;11.670;2023-12-04T09:31:56;11.07;;;5.75;;
73693;SDS011;61997;53.974;11.670;2023-12-04T09:34:22;12.48;;;5.38;;
73693;SDS011;61997;53.974;11.670;2023-12-04T09:36:47;12.18;;;6.00;;
73693;SDS011;61997;53.974;11.670;2023-12-04T09:39:13;11.75;;;5.72;;
73693;SDS011;61997;53.974;11.670;2023-12-04T09:41:39;11.95;;;5.82;;
73693;SDS011;61997;53.974;11.670;2023-12-04T09:44:05;10.43;;;5.53;;
73693;SDS011;61997;53.974;11.670;2023-12-04T09:46:31;9.68;;;5.07;;
73693;SDS011;61997;53.974;11.670;2023-12-04T09:49:00;11.23;;;5.57;;
73693;SDS011;61997;53.974;11.670;2023-12-04T09:51:27;11.80;;;5.70;;
73693;SDS011;61997;53.974;11.670;2023-12-04T09:53:53;11.30;;;4.43;;
73693;SDS011;61997;53.974;11.670;2023-12-04T09:56:20;12.48;;;5.97;;
73693;SDS011;61997;53.974;11.670;2023-12-04T09:58:48;11.15;;;5.80;;
73693;SDS011;61997;53.974;11.670;2023-12-04T10:01:18;12.05;;;6.18;;
73693;SDS011;61997;53.974;11.670;2023-12-04T10:03:44;12.82;;;6.03;;
73693;SDS011;61997;53.974;11.670;2023-12-04T10:06:11;10.32;;;5.13;;
73693;SDS011;61997;53.974;11.670;2023-12-04T10:08:42;10.13;;;4.60;;
73693;SDS011;61997;53.974;11.670;2023-12-04T10:11:07;11.63;;;5.93;;
73693;SDS011;61997;53.974;11.670;2023-12-04T10:13:33;8.80;;;4.80;;
73693;SDS011;61997;53.974;11.670;2023-12-04T10:16:01;11.00;;;5.78;;
73693;SDS011;61997;53.974;11.670;2023-12-04T10:18:28;10.73;;;5.13;;
73693;SDS011;61997;53.974;11.670;2023-12-04T10:20:55;14.93;;;5.47;;
73693;SDS011;61997;53.974;11.670;2023-12-04T10:23:21;11.25;;;5.72;;
73693;SDS011;61997;53.974;11.670;2023-12-04T10:25:50;10.15;;;5.47;;
73693;SDS011;61997;53.974;11.670;2023-12-04T10:28:16;9.45;;;5.45;;
73693;SDS011;61997;53.974;11.670;2023-12-04T10:30:42;11.63;;;5.78;;
73693;SDS011;61997;53.974;11.670;2023-12-04T10:33:07;12.38;;;6.10;;
73693;SDS011;61997;53.974;11.670;2023-12-04T10:35:34;10.68;;;6.22;;
73693;SDS011;61997;53.974;11.670;2023-12-04T10:38:03;10.02;;;5.88;;
73693;SDS011;61997;53.974;11.670;2023-12-04T10:40:30;13.73;;;6.47;;
73693;SDS011;61997;53.974;11.670;2023-12-04T10:45:42;11.45;;;6.05;;
73693;SDS011;61997;53.974;11.670;2023-12-04T10:48:13;10.65;;;5.07;;
73693;SDS011;61997;53.974;11.670;2023-12-04T10:50:41;9.23;;;5.38;;
73693;SDS011;61997;53.974;11.670;2023-12-04T10:53:08;12.20;;;6.38;;
73693;SDS011;61997;53.974;11.670;2023-12-04T10:55:36;11.55;;;5.55;;
73693;SDS011;61997;53.974;11.670;2023-12-04T10:58:02;11.73;;;6.10;;
73693;SDS011;61997;53.974;11.670;2023-12-04T11:00:35;9.85;;;5.03;;
73693;SDS011;61997;53.974;11.670;2023-12-04T11:03:09;9.65;;;5.50;;
73693;SDS011;61997;53.974;11.670;2023-12-04T11:05:39;11.35;;;5.57;;
73693;SDS011;61997;53.974;11.670;2023-12-04T11:08:16;12.80;;;5.30;;
73693;SDS011;61997;53.974;11.670;2023-12-04T11:11:01;11.60;;;5.38;;
73693;SDS011;61997;53.974;11.670;2023-12-04T11:13:28;11.43;;;5.40;;
73693;SDS011;61997;53.974;11.670;2023-12-04T11:16:02;12.43;;;5.65;;
73693;SDS011;61997;53.974;11.670;2023-12-04T11:18:35;11.40;;;6.32;;
73693;SDS011;61997;53.974;11.670;2023-12-04T11:21:04;15.10;;;6.45;;
73693;SDS011;61997;53.974;11.670;2023-12-04T11:23:34;11.25;;;6.03;;
73693;SDS011;61997;53.974;11.670;2023-12-04T11:26:07;9.88;;;6.00;;
73693;SDS011;61997;53.974;11.670;2023-12-04T11:28:33;11.80;;;5.95;;
73693;SDS011;61997;53.974;11.670;2023-12-04T11:30:59;10.50;;;5.93;;
73693;SDS011;61997;53.974;11.670;2023-12-04T11:33:26;10.80;;;5.57;;
73693;SDS011;61997;53.974;11.670;2023-12-04T11:35:51;12.40;;;6.53;;
73693;SDS011;61997;53.974;11.670;2023-12-04T11:38:17;11.55;;;6.25;;
73693;SDS011;61997;53.974;11.670;2023-12-04T11:40:42;13.27;;;7.13;;
73693;SDS011;61997;53.974;11.670;2023-12-04T11:43:27;13.65;;;6.15;;
73693;SDS011;61997;53.974;11.670;2023-12-04T11:46:07;11.13;;;5.50;;
73693;SDS011;61997;53.974;11.670;2023-12-04T11:48:39;10.40;;;5.55;;
73693;SDS011;61997;53.974;11.670;2023-12-04T11:51:07;11.05;;;6.13;;
73693;SDS011;61997;53.974;11.670;2023-12-04T11:53:39;14.43;;;6.40;;
73693;SDS011;61997;53.974;11.670;2023-12-04T11:56:11;14.13;;;7.18;;
73693;SDS011;61997;53.974;11.670;2023-12-04T11:58:44;15.13;;;7.38;;
73693;SDS011;61997;53.974;11.670;2023-12-04T12:01:10;15.02;;;6.43;;
73693;SDS011;61997;53.974;11.670;2023-12-04T12:03:35;12.45;;;6.35;;
73693;SDS011;61997;53.974;11.670;2023-12-04T12:06:01;15.15;;;7.18;;
73693;SDS011;61997;53.974;11.670;2023-12-04T12:08:28;15.25;;;6.63;;
73693;SDS011;61997;53.974;11.670;2023-12-04T12:10:54;15.85;;;6.60;;
73693;SDS011;61997;53.974;11.670;2023-12-04T12:13:20;16.85;;;6.93;;
73693;SDS011;61997;53.974;11.670;2023-12-04T12:15:50;17.48;;;7.15;;
73693;SDS011;61997;53.974;11.670;2023-12-04T12:18:16;16.17;;;6.82;;
73693;SDS011;61997;53.974;11.670;2023-12-04T12:20:41;11.02;;;6.07;;
73693;SDS011;61997;53.974;11.670;2023-12-04T12:23:07;18.23;;;7.82;;
73693;SDS011;61997;53.974;11.670;2023-12-04T12:25:34;12.43;;;6.32;;
73693;SDS011;61997;53.974;11.670;2023-12-04T12:28:03;15.65;;;7.75;;
73693;SDS011;61997;53.974;11.670;2023-12-04T12:30:31;15.88;;;7.78;;
73693;SDS011;61997;53.974;11.670;2023-12-04T12:32:57;13.82;;;6.88;;
73693;SDS011;61997;53.974;11.670;2023-12-04T12:35:22;12.85;;;6.47;;
73693;SDS011;61997;53.974;11.670;2023-12-04T12:37:48;16.08;;;7.10;;
73693;SDS011;61997;53.974;11.670;2023-12-04T12:40:14;13.93;;;7.47;;
73693;SDS011;61997;53.974;11.670;2023-12-04T12:42:40;13.52;;;6.90;;
73693;SDS011;61997;53.974;11.670;2023-12-04T12:45:07;16.70;;;8.27;;
73693;SDS011;61997;53.974;11.670;2023-12-04T12:47:35;16.85;;;8.02;;
73693;SDS011;61997;53.974;11.670;2023-12-04T12:50:00;14.40;;;7.35;;
73693;SDS011;61997;53.974;11.670;2023-12-04T12:52:26;15.43;;;7.60;;
73693;SDS011;61997;53.974;11.670;2023-12-04T12:54:52;14.65;;;7.35;;
73693;SDS011;61997;53.974;11.670;2023-12-04T12:57:18;15.30;;;7.35;;
73693;SDS011;61997;53.974;11.670;2023-12-04T12:59:43;13.75;;;7.28;;
73693;SDS011;61997;53.974;11.670;2023-12-04T13:02:09;18.20;;;8.48;;
73693;SDS011;61997;53.974;11.670;2023-12-04T13:04:36;16.10;;;7.97;;
73693;SDS011;61997;53.974;11.670;2023-12-04T13:07:02;17.85;;;7.32;;
73693;SDS011;61997;53.974;11.670;2023-12-04T13:09:28;14.30;;;8.07;;
73693;SDS011;61997;53.974;11.670;2023-12-04T13:11:54;17.92;;;7.90;;
73693;SDS011;61997;53.974;11.670;2023-12-04T13:14:20;15.93;;;8.45;;
73693;SDS011;61997;53.974;11.670;2023-12-04T13:16:45;15.63;;;8.55;;
73693;SDS011;61997;53.974;11.670;2023-12-04T13:19:10;13.85;;;6.68;;
73693;SDS011;61997;53.974;11.670;2023-12-04T13:21:36;16.75;;;7.57;;
73693;SDS011;61997;53.974;11.670;2023-12-04T13:24:02;15.73;;;7.25;;
73693;SDS011;61997;53.974;11.670;2023-12-04T13:26:32;15.43;;;7.10;;
73693;SDS011;61997;53.974;11.670;2023-12-04T13:28:59;15.60;;;7.65;;
73693;SDS011;61997;53.974;11.670;2023-12-04T13:31:24;16.63;;;7.07;;
73693;SDS011;61997;53.974;11.670;2023-12-04T13:33:50;18.30;;;7.97;;
73693;SDS011;61997;53.974;11.670;2023-12-04T13:36:15;14.80;;;7.35;;
73693;SDS011;61997;53.974;11.670;2023-12-04T13:38:40;13.07;;;7.50;;
73693;SDS011;61997;53.974;11.670;2023-12-04T13:41:06;15.90;;;7.78;;
73693;SDS011;61997;53.974;11.670;2023-12-04T13:43:54;18.25;;;8.30;;
73693;SDS011;61997;53.974;11.670;2023-12-04T13:46:21;12.32;;;6.47;;
73693;SDS011;61997;53.974;11.670;2023-12-04T13:48:46;13.52;;;7.75;;
73693;SDS011;61997;53.974;11.670;2023-12-04T13:51:12;16.05;;;8.20;;
73693;SDS011;61997;53.974;11.670;2023-12-04T13:53:38;13.57;;;7.07;;
73693;SDS011;61997;53.974;11.670;2023-12-04T13:56:10;15.80;;;7.57;;
73693;SDS011;61997;53.974;11.670;2023-12-04T13:58:48;14.73;;;6.88;;
73693;SDS011;61997;53.974;11.670;2023-12-04T14:01:22;13.68;;;6.13;;
73693;SDS011;61997;53.974;11.670;2023-12-04T14:03:54;15.63;;;7.82;;
73693;SDS011;61997;53.974;11.670;2023-12-04T14:06:22;12.27;;;6.68;;
73693;SDS011;61997;53.974;11.670;2023-12-04T14:08:47;13.07;;;7.32;;
73693;SDS011;61997;53.974;11.670;2023-12-04T14:11:13;17.58;;;7.40;;
73693;SDS011;61997;53.974;11.670;2023-12-04T14:13:39;12.55;;;6.78;;
73693;SDS011;61997;53.974;11.670;2023-12-04T14:16:08;14.82;;;8.18;;
73693;SDS011;61997;53.974;11.670;2023-12-04T14:18:34;15.57;;;7.38;;
73693;SDS011;61997;53.974;11.670;2023-12-04T14:20:59;13.45;;;6.97;;
73693;SDS011;61997;53.974;11.670;2023-12-04T14:23:25;12.32;;;6.03;;
73693;SDS011;61997;53.974;11.670;2023-12-04T14:25:50;9.57;;;5.93;;